createdAt,value
2018-04-28T14:51:09.096Z,4.30
2018-04-28T14:53:38.014Z,4.07
2018-04-28T14:56:07.046Z,4.60
2018-04-28T14:58:35.969Z,4.93
2018-04-28T15:01:04.905Z,2.13
2018-04-28T15:03:33.890Z,6.43
2018-04-28T15:06:02.946Z,6.03
2018-04-28T15:08:31.857Z,8.53
2018-04-28T15:11:00.823Z,2.90
2018-04-28T15:13:29.744Z,9.00
2018-04-28T15:15:58.699Z,3.07
2018-04-28T15:18:27.684Z,3.80
2018-04-28T15:20:56.603Z,7.97
2018-04-28T15:23:25.625Z,5.17
2018-04-28T15:25:54.609Z,5.87
2018-04-28T15:28:23.700Z,5.87
2018-04-28T15:30:52.759Z,4.23
2018-04-28T15:33:21.729Z,5.23
2018-04-28T15:35:50.639Z,4.37
2018-04-28T15:38:19.909Z,4.37
2018-04-28T15:40:48.821Z,3.27
2018-04-28T15:43:17.764Z,11.60
2018-04-28T15:45:46.740Z,9.20
2018-04-28T15:48:15.645Z,6.53
2018-04-28T15:50:44.547Z,8.30
2018-04-28T15:53:13.810Z,6.43
2018-04-28T15:55:42.713Z,4.27
2018-04-28T15:58:11.658Z,4.40
2018-04-28T16:00:41.209Z,4.97
2018-04-28T16:03:10.126Z,6.07
2018-04-28T16:05:39.038Z,7.97
2018-04-28T16:08:08.079Z,5.53
2018-04-28T16:10:36.983Z,8.83
2018-04-28T16:13:06.389Z,3.78
2018-04-28T16:15:35.381Z,3.67
2018-04-28T16:18:06.053Z,4.43
2018-04-28T16:20:37.022Z,6.72
2018-04-28T16:23:07.909Z,5.22
2018-04-28T16:25:38.990Z,5.62
2018-04-28T16:28:10.093Z,13.60
2018-04-28T16:30:41.104Z,3.37
2018-04-28T16:33:11.996Z,11.45
2018-04-28T16:35:43.024Z,9.82
2018-04-28T16:38:13.943Z,25.10
2018-04-28T16:40:45.158Z,10.35
2018-04-28T16:43:15.669Z,9.86
2018-04-28T16:45:46.417Z,8.25
2018-04-28T16:48:17.097Z,8.70
2018-04-28T16:50:48.325Z,7.68
2018-04-28T16:53:18.748Z,9.70
2018-04-28T16:55:50.304Z,4.72
2018-04-28T16:58:20.310Z,7.15
2018-04-28T17:00:51.347Z,4.90
2018-04-28T17:03:22.047Z,6.50
2018-04-28T17:05:53.391Z,5.95
2018-04-28T17:08:24.038Z,4.40
2018-04-28T17:10:55.105Z,8.48
2018-04-28T17:13:25.968Z,10.25
2018-04-28T17:15:56.957Z,4.18
2018-04-28T17:18:27.553Z,5.45
2018-04-28T17:20:58.322Z,6.85
2018-04-28T17:23:29.086Z,8.60
2018-04-28T17:25:59.724Z,8.88
2018-04-28T17:28:30.306Z,7.30
2018-04-28T17:31:01.097Z,6.10
2018-04-28T17:33:31.974Z,8.85
2018-04-28T17:36:03.162Z,12.48
2018-04-28T17:38:34.101Z,13.02
2018-04-28T17:41:05.089Z,12.23
2018-04-28T17:43:36.075Z,16.05
2018-04-28T17:46:06.910Z,10.48
2018-04-28T17:48:38.056Z,12.37
2018-04-28T17:51:09.493Z,15.05
2018-04-28T17:53:40.162Z,18.80
2018-04-28T17:56:10.826Z,15.20
2018-04-28T17:58:41.558Z,16.73
2018-04-28T18:01:12.353Z,13.68
2018-04-28T18:03:43.060Z,11.30
2018-04-28T18:06:14.144Z,12.77
2018-04-28T18:08:45.047Z,18.23
2018-04-28T18:11:16.040Z,16.98
2018-04-28T18:13:47.309Z,18.23
2018-04-28T18:16:18.222Z,9.63
2018-04-28T18:18:49.061Z,13.38
2018-04-28T18:21:20.079Z,24.85
2018-04-28T18:23:51.038Z,19.75
2018-04-28T18:26:22.189Z,33.30
2018-04-28T18:28:53.053Z,26.90
2018-04-28T18:31:24.657Z,22.44
2018-04-28T18:33:55.215Z,28.85
2018-04-28T18:36:26.119Z,24.95
2018-04-28T18:38:57.167Z,20.73
2018-04-28T18:41:28.130Z,21.67
2018-04-28T18:44:00.473Z,16.67
2018-04-28T18:46:30.657Z,22.95
2018-04-28T18:49:01.436Z,27.60
2018-04-28T18:51:32.220Z,41.63
2018-04-28T18:54:03.058Z,37.70
2018-04-28T18:56:34.062Z,23.83
2018-04-28T18:59:04.538Z,23.52
2018-04-28T19:01:36.313Z,23.34
2018-04-28T19:04:06.811Z,26.94
2018-04-28T19:06:37.355Z,50.57
2018-04-28T19:09:08.111Z,26.00
2018-04-28T19:11:39.369Z,20.70
2018-04-28T19:14:10.566Z,23.65
2018-04-28T19:16:40.581Z,23.58
2018-04-28T19:19:11.308Z,21.08
2018-04-28T19:21:42.203Z,48.17
2018-04-28T19:24:13.430Z,25.85
2018-04-28T19:26:45.064Z,22.60
2018-04-28T19:29:15.731Z,35.00
2018-04-28T19:31:46.590Z,21.92
2018-04-28T19:34:17.425Z,21.00
2018-04-28T19:36:48.142Z,18.05
2018-04-28T19:39:19.183Z,16.12
2018-04-28T19:41:51.032Z,20.30
2018-04-28T19:44:21.633Z,23.86
2018-04-28T19:46:52.406Z,23.12
2018-04-28T19:49:23.154Z,17.70
2018-04-28T19:51:53.994Z,17.65
2018-04-28T19:54:25.139Z,16.77
2018-04-28T19:56:56.078Z,20.05
2018-04-28T19:59:27.086Z,22.25
2018-04-28T20:01:58.149Z,20.85
2018-04-28T20:04:28.807Z,20.50
2018-04-28T20:06:59.770Z,20.10
2018-04-28T20:09:30.482Z,19.82
2018-04-28T20:12:01.783Z,20.23
2018-04-28T20:14:33.410Z,22.96
2018-04-28T20:17:03.754Z,33.88
2018-04-28T20:19:34.314Z,31.90
2018-04-28T20:22:16.314Z,26.92
2018-04-28T20:24:56.490Z,35.23
2018-04-28T20:27:25.764Z,29.43
2018-04-28T20:29:54.715Z,33.70
2018-04-28T20:32:23.968Z,29.17
2018-04-28T20:34:53.993Z,26.33
2018-04-28T20:37:23.533Z,26.52
2018-04-28T20:39:52.797Z,24.23
2018-04-28T20:42:22.407Z,20.25
2018-04-28T20:44:51.787Z,22.83
2018-04-28T20:47:20.862Z,23.25
2018-04-28T20:49:49.847Z,23.05
2018-04-28T20:52:18.902Z,22.80
2018-04-28T20:54:47.849Z,20.93
2018-04-28T20:57:16.825Z,30.57
2018-04-28T20:59:47.657Z,24.66
2018-04-28T21:02:18.314Z,19.83
2018-04-28T21:04:49.220Z,20.75
2018-04-28T21:07:20.111Z,22.52
2018-04-28T21:09:51.186Z,24.20
2018-04-28T21:12:22.175Z,22.55
2018-04-28T21:14:53.161Z,21.33
2018-04-28T21:17:24.237Z,20.02
2018-04-28T21:19:55.139Z,23.80
2018-04-28T21:22:26.256Z,22.77
2018-04-28T21:24:57.408Z,28.52
2018-04-28T21:27:28.235Z,22.75
2018-04-28T21:29:59.154Z,18.60
2018-04-28T21:32:30.204Z,18.42
2018-04-28T21:35:01.125Z,16.75
2018-04-28T21:37:32.121Z,16.20
2018-04-28T21:40:03.103Z,18.17
2018-04-28T21:42:33.806Z,16.68
2018-04-28T21:45:04.512Z,23.30
2018-04-28T21:47:35.498Z,22.75
2018-04-28T21:50:06.210Z,16.87
2018-04-28T21:52:37.201Z,21.40
2018-04-28T21:55:08.137Z,21.85
2018-04-28T21:57:39.182Z,18.05
2018-04-28T22:00:10.154Z,23.48
2018-04-28T22:02:41.522Z,24.25
2018-04-28T22:05:12.303Z,24.42
2018-04-28T22:07:43.180Z,23.48
2018-04-28T22:10:14.125Z,36.10
2018-04-28T22:12:45.092Z,31.25
2018-04-28T22:15:16.517Z,34.13
2018-04-28T22:17:47.437Z,34.22
2018-04-28T22:20:18.154Z,32.88
2018-04-28T22:22:48.744Z,35.52
2018-04-28T22:25:19.879Z,34.10
2018-04-28T22:27:50.683Z,36.20
2018-04-28T22:30:21.378Z,35.06
2018-04-28T22:32:52.119Z,32.85
2018-04-28T22:35:22.662Z,31.66
2018-04-28T22:37:53.427Z,33.53
2018-04-28T22:40:23.382Z,33.58
2018-04-28T22:42:54.175Z,39.55
2018-04-28T22:45:25.026Z,35.08
2018-04-28T22:47:56.181Z,29.08
2018-04-28T22:50:27.073Z,30.62
2018-04-28T22:52:58.137Z,30.15
2018-04-28T22:55:29.113Z,29.52
2018-04-28T22:58:00.105Z,25.67
2018-04-28T23:00:45.618Z,25.70
2018-04-28T23:03:14.621Z,22.47
2018-04-28T23:05:43.558Z,24.77
2018-04-28T23:08:12.514Z,25.57
2018-04-28T23:10:41.851Z,24.50
2018-04-28T23:13:10.801Z,21.17
2018-04-28T23:15:39.598Z,22.13
2018-04-28T23:18:08.653Z,21.43
2018-04-28T23:20:39.378Z,22.70
2018-04-28T23:23:10.446Z,21.45
2018-04-28T23:25:41.467Z,26.35
2018-04-28T23:28:12.349Z,24.00
2018-04-28T23:30:43.099Z,15.40
2018-04-28T23:33:14.142Z,25.02
2018-04-28T23:35:45.031Z,19.65
2018-04-28T23:38:16.171Z,25.12
2018-04-28T23:40:47.120Z,21.62
2018-04-28T23:43:18.181Z,18.45
2018-04-28T23:45:49.108Z,23.40
2018-04-28T23:48:20.354Z,20.23
2018-04-28T23:50:51.090Z,22.58
2018-04-28T23:53:21.889Z,23.52
2018-04-28T23:55:52.595Z,24.65
2018-04-28T23:58:23.385Z,25.08
